Home > Products > Valid Products > MTR

000
SAUS45 KPUB 212057
MTRSPD
METAR KSPD 212056Z AUTO 23010KT 13/M07 A2959 RMK AO1 SLP999
T01331072 56030





000
SAUS45 KPUB 211957
MTRSPD
METAR KSPD 211956Z AUTO 24008KT 13/M07 A2961 RMK AO1 SLP004
T01331072





000
SAUS45 KPUB 211957
MTRSPD
METAR KSPD 211956Z AUTO 24008KT 13/M07 A2961 RMK AO1 SLP004
T01331072





000
SAUS45 KPUB 211857
MTRSPD
METAR KSPD 211856Z AUTO 27012KT 14/M07 A2965 RMK AO1 PRESFR SLP021
T01441072





000
SAUS45 KPUB 211757
MTRSPD
METAR KSPD 211756Z AUTO 29011KT 13/M06 A2969 RMK AO1 SLP038
T01281061 10128 21011 58019





000
SAUS45 KPUB 211657
MTRSPD
METAR KSPD 211656Z AUTO 29012KT 12/M04 A2973 RMK AO1 SLP052
T01171044





000
SAUS45 KPUB 211557
MTRSPD
METAR KSPD 211556Z AUTO 29010KT 08/M04 A2976 RMK AO1 SLP071
T00831039





000
SAUS45 KPUB 211457
MTRSPD
METAR KSPD 211456Z AUTO 29010KT 03/M04 A2976 RMK AO1 SLP079
T00281044 58009





000
SAUS45 KPUB 211357
MTRSPD
METAR KSPD 211356Z AUTO 29010KT M01/M06 A2977 RMK AO1 SLP088
T10061056





000
SAUS45 KPUB 211357
MTRSPD
METAR KSPD 211356Z AUTO 29010KT M01/M06 A2977 RMK AO1 SLP088
T10061056





000
SAUS45 KPUB 211257
MTRSPD
METAR KSPD 211256Z AUTO 30014KT 01/M05 A2979 RMK AO1 SLP088
T00061050





000
SAUS45 KPUB 211257
MTRSPD
METAR KSPD 211256Z AUTO 30014KT 01/M05 A2979 RMK AO1 SLP088
T00061050





000
SAUS45 KPUB 211158
MTRSPD
METAR KSPD 211156Z AUTO 29011KT M01/M05 A2979 RMK AO1 SLP090
T10111050 10017 21022 58013





000
SAUS45 KPUB 211158
MTRSPD
METAR KSPD 211156Z AUTO 29011KT M01/M05 A2979 RMK AO1 SLP090
T10111050 10017 21022 58013





000
SAUS45 KPUB 211057
MTRSPD
METAR KSPD 211056Z AUTO 29007KT M02/M05 A2982 RMK AO1 SLP088
T10171050





000
SAUS45 KPUB 211057
MTRSPD
METAR KSPD 211056Z AUTO 29007KT M02/M05 A2982 RMK AO1 SLP088
T10171050





000
SAUS45 KPUB 210957
MTRSPD
METAR KSPD 210956Z AUTO 27006KT M02/M05 A2984 RMK AO1 SLP093
T10171050





000
SAUS45 KPUB 210957
MTRSPD
METAR KSPD 210956Z AUTO 27006KT M02/M05 A2984 RMK AO1 SLP093
T10171050





000
SAUS45 KPUB 210857
MTRSPD
METAR KSPD 210856Z AUTO 26005KT 01/M03 A2984 RMK AO1 SLP088
T00061028 58022





000
SAUS45 KPUB 210758
MTRSPD
METAR KSPD 210756Z AUTO 26005KT 01/M03 A2986 RMK AO1 SLP097
T00111033





000
SAUS45 KPUB 210657
MTRSPD
METAR KSPD 210656Z AUTO 24003KT M02/M04 A2989 RMK AO1 SLP110
T10221039 401171061





000
SAUS45 KPUB 210557
MTRSPD
METAR KSPD 210556Z AUTO 23008KT M01/M03 A2991 RMK AO1 SLP117
T10111033 10028 21028 55012





000
SAUS45 KPUB 210458
MTRSPD
METAR KSPD 210456Z AUTO 21005KT M02/M04 A2991 RMK AO1 SLP121
T10221039





000
SAUS45 KPUB 210458
MTRSPD
METAR KSPD 210456Z AUTO 21005KT M02/M04 A2991 RMK AO1 SLP121
T10221039





000
SAUS45 KPUB 210357
MTRSPD
METAR KSPD 210356Z AUTO 20007KT M02/M04 A2993 RMK AO1 SLP134
T10221039





000
SAUS45 KPUB 210357
MTRSPD
METAR KSPD 210356Z AUTO 20007KT M02/M04 A2993 RMK AO1 SLP134
T10221039





000
SAUS45 KPUB 210257
MTRSPD
METAR KSPD 210256Z AUTO 19006KT M02/M04 A2995 RMK AO1 SLP151
T10221044 58004





000
SAUS45 KPUB 210157
MTRSPD
METAR KSPD 210156Z AUTO 00000KT M01/M04 A2996 RMK AO1 SLP160
T10061039





000
SAUS45 KPUB 210057
MTRSPD
METAR KSPD 210056Z AUTO 14003KT 02/M04 A2996 RMK AO1 SLP156
T00171044





000
SAUS45 KPUB 202357
MTRSPD
METAR KSPD 202356Z AUTO 16008KT 02/M04 A2996 RMK AO1 SLP155
T00221044 10117 20022 53003





000
SAUS45 KPUB 202257
MTRSPD
METAR KSPD 202256Z AUTO 14006KT 09/M04 A2994 RMK AO1 SLP135
T00891044





000
SAUS45 KPUB 202157
MTRSPD
METAR KSPD 202156Z AUTO 18005KT 11/M07 A2995 RMK AO1 SLP132
T01061067





000
SAUS45 KPUB 202057
MTRSPD
METAR KSPD 202056Z AUTO 18005KT 11/M06 A2995 RMK AO1 SLP130
T01061061 58015





000
SAUS45 KPUB 201957
MTRSPD
METAR KSPD 201956Z AUTO 17005KT 11/M06 A2997 RMK AO1 SLP139
T01111056





000
SAUS45 KPUB 201857
MTRSPD
METAR KSPD 201856Z AUTO VRB04KT 11/M06 A2999 RMK AO1 SLP151
T01061061





000
SAUS45 KPUB 201757
MTRSPD
METAR KSPD 201756Z AUTO 14004KT 09/M07 A3000 RMK AO1 SLP155
T00941067 10094 21061 58013





000
SAUS45 KPUB 201657
MTRSPD
METAR KSPD 201656Z AUTO 00000KT 08/M06 A3003 RMK AO1 SLP166
T00831056





000
SAUS45 KPUB 201557
MTRSPD
METAR KSPD 201556Z AUTO 30003KT 07/M03 A3004 RMK AO1 SLP173
T00671033





000
SAUS45 KPUB 201457
MTRSPD
METAR KSPD 201456Z AUTO 28004KT M01/M04 A3004 RMK AO1 SLP186
T10061044 51003





000
SAUS45 KPUB 201357
MTRSPD
METAR KSPD 201356Z AUTO 27003KT M06/M08 A3004 RMK AO1 SLP192
T10561078





000
SAUS45 KPUB 201257
MTRSPD
METAR KSPD 201256Z AUTO 00000KT M04/M07 A3004 RMK AO1 SLP186
T10391067





000
SAUS45 KPUB 201157
MTRSPD
METAR KSPD 201156Z AUTO 00000KT M04/M06 A3003 RMK AO1 SLP184
T10441061 11011 21044 53003





000
SAUS45 KPUB 201057
MTRSPD
METAR KSPD 201056Z AUTO 23004KT M04/M06 A3003 RMK AO1 SLP172
T10391061





000
SAUS45 KPUB 200957
MTRSPD
METAR KSPD 200956Z AUTO 23005KT M02/M05 A3002 RMK AO1 SLP160
T10221050





000
SAUS45 KPUB 200857
MTRSPD
METAR KSPD 200856Z AUTO 24006KT M01/M04 A3002 RMK AO1 SLP159
T10111039 56010





000
SAUS45 KPUB 200757
MTRSPD
METAR KSPD 200756Z AUTO 25006KT M03/M05 A3003 RMK AO1 SLP164
T10281050





000
SAUS45 KPUB 200757
MTRSPD
METAR KSPD 200756Z AUTO 25006KT M03/M05 A3003 RMK AO1 SLP164
T10281050





000
SAUS45 KPUB 200657
MTRSPD
METAR KSPD 200656Z AUTO 28003KT M04/M06 A3004 RMK AO1 SLP171
T10391056 400941056





000
SAUS45 KPUB 200557
MTRSPD
METAR KSPD 200556Z AUTO 24005KT M04/M06 A3006 RMK AO1 SLP179
T10391056 10000 21044 58003





000
SAUS45 KPUB 200458
MTRSPD
METAR KSPD 200456Z AUTO 24006KT M03/M04 A3006 RMK AO1 SLP184
T10331044





000
SAUS45 KPUB 200357
MTRSPD
METAR KSPD 200356Z AUTO 24003KT M04/M06 A3006 RMK AO1 SLP190
T10391056





000
SAUS45 KPUB 200357
MTRSPD
METAR KSPD 200356Z AUTO 24003KT M04/M06 A3006 RMK AO1 SLP190
T10391056





000
SAUS45 KPUB 200257
MTRSPD
METAR KSPD 200256Z AUTO 24004KT M03/M05 A3007 RMK AO1 SLP196
T10281050 51002





000
SAUS45 KPUB 200157
MTRSPD
METAR KSPD 200156Z AUTO 21004KT M02/M04 A3006 RMK AO1 SLP197
T10171044





000
SAUS45 KPUB 200157
MTRSPD
METAR KSPD 200156Z AUTO 21004KT M02/M04 A3006 RMK AO1 SLP197
T10171044





000
SAUS45 KPUB 200057
MTRSPD
METAR KSPD 200056Z AUTO 20003KT M01/M04 A3007 RMK AO1 SLP199
T10111044





000
SAUS45 KPUB 192357
MTRSPD
METAR KSPD 192356Z AUTO 14007KT 00/M04 A3006 RMK AO1 SLP193
T00001044 10094 20000 53006





000
SAUS45 KPUB 192257
MTRSPD
METAR KSPD 192256Z AUTO 13008KT 06/M04 A3006 RMK AO1 SLP177
T00611039





000
SAUS45 KPUB 192157
MTRSPD
METAR KSPD 192156Z AUTO 11008KT 08/M04 A3004 RMK AO1 SLP167
T00831044





000
SAUS45 KPUB 191857
MTRSPD
METAR KSPD 191856Z AUTO VRB03KT 08/M04 A3007 RMK AO1 SLP183
T00781044





000
SAUS45 KPUB 191757
MTRSPD
METAR KSPD 191756Z AUTO 00000KT 07/M03 A3010 RMK AO1 SLP193
T00721033 10072 21056 50000





000
SAUS45 KPUB 191657
MTRSPD
METAR KSPD 191656Z AUTO 32008KT 05/01 A3013 RMK AO1 SLP208 T00500006





000
SAUS45 KPUB 191557
MTRSPD
METAR KSPD 191556Z AUTO 31009KT 02/00 A3012 RMK AO1 SLP211 T00220000





000
SAUS45 KPUB 191458
MTRSPD
METAR KSPD 191456Z AUTO 30008KT M02/M03 A3010 RMK AO1 SLP210
T10171028 53010





000
SAUS45 KPUB 191357
MTRSPD
METAR KSPD 191356Z AUTO 30010KT M04/M06 A3009 RMK AO1 SLP210
T10391056





000
SAUS45 KPUB 191257
MTRSPD
METAR KSPD 191256Z AUTO 28003KT M04/M06 A3007 RMK AO1 SLP200
T10441061





000
SAUS45 KPUB 191157
MTRSPD
METAR KSPD 191156Z AUTO 29003KT M04/M05 A3007 RMK AO1 SLP199
T10391050 11022 21039 56007





000
SAUS45 KPUB 191057
MTRSPD
METAR KSPD 191056Z AUTO 29003KT M02/M03 A3007 RMK AO1 SLP188
T10221033





000
SAUS45 KPUB 190957
MTRSPD
METAR KSPD 190956Z AUTO 26004KT M02/M04 A3008 RMK AO1 SLP185
T10221039





000
SAUS45 KPUB 190957
MTRSPD
METAR KSPD 190956Z AUTO 26004KT M02/M04 A3008 RMK AO1 SLP185
T10221039





000
SAUS45 KPUB 190857
MTRSPD
METAR KSPD 190856Z AUTO 25004KT M02/M04 A3009 RMK AO1 SLP189
T10221039 56005





000
SAUS45 KPUB 190757
MTRSPD
METAR KSPD 190756Z AUTO 30003KT M04/M05 A3009 RMK AO1 SLP194
T10391050





000
SAUS45 KPUB 190657
MTRSPD
METAR KSPD 190656Z AUTO 28005KT M03/M04 A3010 RMK AO1 SLP201
T10331044 400721056





000
SAUS45 KPUB 190557
MTRSPD
METAR KSPD 190556Z AUTO 00000KT M03/M04 A3011 RMK AO1 SLP210
T10281039 11011 21056 51006





000
SAUS45 KPUB 190457
MTRSPD
METAR KSPD 190456Z AUTO 00000KT M04/M04 A3010 RMK AO1 SLP211
T10391044





000
SAUS45 KPUB 190357
MTRSPD
METAR KSPD 190356Z AUTO 29003KT M05/M06 A3011 RMK AO1 SLP217
T10501056





000
SAUS45 KPUB 190357
MTRSPD
METAR KSPD 190356Z AUTO 29003KT M05/M06 A3011 RMK AO1 SLP217
T10501056





000
SAUS45 KPUB 190257
MTRSPD
METAR KSPD 190256Z AUTO 22004KT M04/M06 A3009 RMK AO1 SLP214
T10441056 50009





000
SAUS45 KPUB 190157
MTRSPD
METAR KSPD 190156Z AUTO 23006KT M04/M05 A3009 RMK AO1 SLP212
T10391050





000
SAUS45 KPUB 190157
MTRSPD
METAR KSPD 190156Z AUTO 23006KT M04/M05 A3009 RMK AO1 SLP212
T10391050





000
SAUS45 KPUB 190057
MTRSPD
METAR KSPD 190056Z AUTO 19005KT M02/M03 A3008 RMK AO1 SLP201
T10171033





000
SAUS45 KPUB 182357
MTRSPD
METAR KSPD 182356Z AUTO 15006KT M02/M03 A3006 RMK AO1 SLP194
T10171033 10072 21017 53009





000
SAUS45 KPUB 182257
MTRSPD
METAR KSPD 182256Z AUTO 11006KT 03/M01 A3005 RMK AO1 SLP181
T00331011





000
SAUS45 KPUB 182157
MTRSPD
METAR KSPD 182156Z AUTO VRB03KT 07/M02 A3004 RMK AO1 SLP173
T00671017





    US Dept of Commerce
    National Oceanic and Atmospheric Administration
    National Weather Service
    1325 East West Highway
    Silver Spring, MD 20910
    Page Author: NWS Internet Services Team
Disclaimer
Information Quality
Credits
Glossary
Privacy Policy
Freedom of Information Act (FOIA)
About Us
Career Opportunities